3J7

Greene County Regional Airport

Greensboro, Georgia, USA
METAR K3J7 161235Z AUTO 26004KT 10SM BKN027 08/08 A3004 RMK AO2
Observed Flight Rules
Dec-16 @ 12:35 UTC (46 minutes ago) Marginal Visual Flight Rules
Wind Visibility Clouds
260° at 4 knots 10 miles
  • Broken at 2,700' AGL
Temperatures Readings
Current 8°C / 46°F
Dewpoint 8°C / 46°F
Humidity 100%
Altimeter 30.04" Hg
Pressure 1017 hPa
Elevation 206
METAR K3J7 161235Z AUTO 26004KT 10SM BKN027 08/08 A3004 RMK AO2
Observed Flight Rules
Dec-16 @ 12:35 UTC
(46 minutes ago)
MVFR
Wind Visibility
260° at 4 knots 10 miles
Clouds
  • Broken at 2,700' AGL
Temperature Dewpoint
8°C / 46°F 8°C / 46°F
Humidity Altimeter Pressure
100% 30.04" Hg 1017 hPa